sensor_id;sensor_type;location;lat;lon;timestamp;P1;durP1;ratioP1;P2;durP2;ratioP2
53939;SDS011;39850;43.324;21.916;2023-05-07T00:02:30;9.0;;;8.0;;
53939;SDS011;39850;43.324;21.916;2023-05-07T00:07:06;9.0;;;8.0;;
53939;SDS011;39850;43.324;21.916;2023-05-07T00:11:43;10.0;;;8.0;;
53939;SDS011;39850;43.324;21.916;2023-05-07T00:16:20;10.0;;;8.0;;
53939;SDS011;39850;43.324;21.916;2023-05-07T00:20:57;9.0;;;8.0;;
53939;SDS011;39850;43.324;21.916;2023-05-07T00:25:34;9.0;;;8.0;;
53939;SDS011;39850;43.324;21.916;2023-05-07T00:30:13;10.0;;;8.0;;
53939;SDS011;39850;43.324;21.916;2023-05-07T00:34:50;10.0;;;8.0;;
53939;SDS011;39850;43.324;21.916;2023-05-07T00:39:27;10.0;;;8.0;;
53939;SDS011;39850;43.324;21.916;2023-05-07T00:44:04;9.0;;;8.0;;
53939;SDS011;39850;43.324;21.916;2023-05-07T00:48:41;9.0;;;8.0;;
53939;SDS011;39850;43.324;21.916;2023-05-07T01:21:17;9.0;;;8.0;;
53939;SDS011;39850;43.324;21.916;2023-05-07T01:25:56;9.0;;;8.0;;
53939;SDS011;39850;43.324;21.916;2023-05-07T01:30:41;9.0;;;8.0;;
53939;SDS011;39850;43.324;21.916;2023-05-07T01:35:43;9.0;;;8.0;;
53939;SDS011;39850;43.324;21.916;2023-05-07T01:40:28;9.0;;;8.0;;
53939;SDS011;39850;43.324;21.916;2023-05-07T01:45:09;9.0;;;8.0;;
53939;SDS011;39850;43.324;21.916;2023-05-07T01:49:47;9.0;;;8.0;;
53939;SDS011;39850;43.324;21.916;2023-05-07T01:54:27;9.0;;;8.0;;
53939;SDS011;39850;43.324;21.916;2023-05-07T01:59:04;9.0;;;8.0;;
53939;SDS011;39850;43.324;21.916;2023-05-07T02:40:46;9.0;;;8.0;;
53939;SDS011;39850;43.324;21.916;2023-05-07T02:45:23;9.0;;;8.0;;
53939;SDS011;39850;43.324;21.916;2023-05-07T02:50:00;9.0;;;8.0;;
53939;SDS011;39850;43.324;21.916;2023-05-07T02:54:36;9.0;;;8.0;;
53939;SDS011;39850;43.324;21.916;2023-05-07T02:59:13;9.0;;;8.0;;
53939;SDS011;39850;43.324;21.916;2023-05-07T03:03:50;9.0;;;8.0;;
53939;SDS011;39850;43.324;21.916;2023-05-07T03:08:27;9.0;;;8.0;;
53939;SDS011;39850;43.324;21.916;2023-05-07T03:13:05;10.0;;;8.0;;
53939;SDS011;39850;43.324;21.916;2023-05-07T03:17:41;10.0;;;8.0;;
53939;SDS011;39850;43.324;21.916;2023-05-07T03:22:18;10.0;;;9.0;;
53939;SDS011;39850;43.324;21.916;2023-05-07T03:26:55;10.0;;;9.0;;
53939;SDS011;39850;43.324;21.916;2023-05-07T04:03:50;10.0;;;9.0;;
53939;SDS011;39850;43.324;21.916;2023-05-07T04:08:26;10.0;;;9.0;;
53939;SDS011;39850;43.324;21.916;2023-05-07T04:13:03;10.0;;;8.0;;
53939;SDS011;39850;43.324;21.916;2023-05-07T04:17:40;10.0;;;8.0;;
53939;SDS011;39850;43.324;21.916;2023-05-07T04:22:17;10.0;;;8.0;;
53939;SDS011;39850;43.324;21.916;2023-05-07T04:26:53;10.0;;;8.0;;
53939;SDS011;39850;43.324;21.916;2023-05-07T04:31:30;10.0;;;8.0;;
53939;SDS011;39850;43.324;21.916;2023-05-07T04:36:08;10.0;;;8.0;;
53939;SDS011;39850;43.324;21.916;2023-05-07T04:40:45;10.0;;;8.0;;
53939;SDS011;39850;43.324;21.916;2023-05-07T04:45:23;10.0;;;8.0;;
53939;SDS011;39850;43.324;21.916;2023-05-07T04:49:59;10.0;;;8.0;;
53939;SDS011;39850;43.324;21.916;2023-05-07T05:22:14;8.0;;;7.0;;
53939;SDS011;39850;43.324;21.916;2023-05-07T05:26:53;8.0;;;7.0;;
53939;SDS011;39850;43.324;21.916;2023-05-07T05:31:30;8.0;;;7.0;;
53939;SDS011;39850;43.324;21.916;2023-05-07T05:36:10;8.0;;;7.0;;
53939;SDS011;39850;43.324;21.916;2023-05-07T05:40:48;9.0;;;8.0;;
53939;SDS011;39850;43.324;21.916;2023-05-07T05:45:25;9.0;;;8.0;;
53939;SDS011;39850;43.324;21.916;2023-05-07T05:50:04;9.0;;;8.0;;
53939;SDS011;39850;43.324;21.916;2023-05-07T05:54:42;10.0;;;8.0;;
53939;SDS011;39850;43.324;21.916;2023-05-07T05:59:19;10.0;;;8.0;;
53939;SDS011;39850;43.324;21.916;2023-05-07T06:03:57;10.0;;;8.0;;
53939;SDS011;39850;43.324;21.916;2023-05-07T06:08:33;10.0;;;8.0;;
53939;SDS011;39850;43.324;21.916;2023-05-07T06:40:50;9.0;;;8.0;;
53939;SDS011;39850;43.324;21.916;2023-05-07T06:45:26;9.0;;;8.0;;
53939;SDS011;39850;43.324;21.916;2023-05-07T06:50:07;9.0;;;8.0;;
53939;SDS011;39850;43.324;21.916;2023-05-07T06:54:44;10.0;;;8.0;;
53939;SDS011;39850;43.324;21.916;2023-05-07T06:59:21;10.0;;;8.0;;
53939;SDS011;39850;43.324;21.916;2023-05-07T07:03:58;9.0;;;8.0;;
53939;SDS011;39850;43.324;21.916;2023-05-07T07:08:35;9.0;;;8.0;;
53939;SDS011;39850;43.324;21.916;2023-05-07T07:13:11;10.0;;;8.0;;
53939;SDS011;39850;43.324;21.916;2023-05-07T07:17:49;10.0;;;8.0;;
53939;SDS011;39850;43.324;21.916;2023-05-07T07:22:25;9.0;;;8.0;;
53939;SDS011;39850;43.324;21.916;2023-05-07T07:27:02;9.0;;;8.0;;
53939;SDS011;39850;43.324;21.916;2023-05-07T08:03:58;10.0;;;7.0;;
53939;SDS011;39850;43.324;21.916;2023-05-07T08:08:35;10.0;;;7.0;;
53939;SDS011;39850;43.324;21.916;2023-05-07T08:13:11;10.0;;;8.0;;
53939;SDS011;39850;43.324;21.916;2023-05-07T08:17:48;10.0;;;8.0;;
53939;SDS011;39850;43.324;21.916;2023-05-07T08:22:25;10.0;;;8.0;;
53939;SDS011;39850;43.324;21.916;2023-05-07T08:27:01;10.0;;;8.0;;
53939;SDS011;39850;43.324;21.916;2023-05-07T08:31:38;11.0;;;8.0;;
53939;SDS011;39850;43.324;21.916;2023-05-07T08:36:15;11.0;;;8.0;;
53939;SDS011;39850;43.324;21.916;2023-05-07T08:40:52;11.0;;;8.0;;
53939;SDS011;39850;43.324;21.916;2023-05-07T09:22:43;10.0;;;7.0;;
53939;SDS011;39850;43.324;21.916;2023-05-07T09:27:19;10.0;;;7.0;;
53939;SDS011;39850;43.324;21.916;2023-05-07T09:31:56;10.0;;;7.0;;
53939;SDS011;39850;43.324;21.916;2023-05-07T09:36:33;10.0;;;7.0;;
53939;SDS011;39850;43.324;21.916;2023-05-07T09:41:13;10.0;;;7.0;;
53939;SDS011;39850;43.324;21.916;2023-05-07T09:45:51;10.0;;;7.0;;
53939;SDS011;39850;43.324;21.916;2023-05-07T09:50:49;10.0;;;7.0;;
53939;SDS011;39850;43.324;21.916;2023-05-07T10:42:29;12.0;;;10.0;;
53939;SDS011;39850;43.324;21.916;2023-05-07T10:47:14;12.0;;;10.0;;
53939;SDS011;39850;43.324;21.916;2023-05-07T10:52:18;12.0;;;10.0;;
53939;SDS011;39850;43.324;21.916;2023-05-07T10:56:56;12.0;;;10.0;;
53939;SDS011;39850;43.324;21.916;2023-05-07T11:02:10;11.0;;;9.0;;
53939;SDS011;39850;43.324;21.916;2023-05-07T11:07:30;11.0;;;9.0;;
53939;SDS011;39850;43.324;21.916;2023-05-07T11:12:07;10.0;;;8.0;;
53939;SDS011;39850;43.324;21.916;2023-05-07T11:16:45;10.0;;;8.0;;
53939;SDS011;39850;43.324;21.916;2023-05-07T11:21:42;10.0;;;7.0;;
53939;SDS011;39850;43.324;21.916;2023-05-07T11:26:20;10.0;;;7.0;;
53939;SDS011;39850;43.324;21.916;2023-05-07T11:30:59;10.0;;;7.0;;
53939;SDS011;39850;43.324;21.916;2023-05-07T12:03:26;8.0;;;7.0;;
53939;SDS011;39850;43.324;21.916;2023-05-07T12:08:03;8.0;;;7.0;;
53939;SDS011;39850;43.324;21.916;2023-05-07T12:12:41;8.0;;;8.0;;
53939;SDS011;39850;43.324;21.916;2023-05-07T12:17:23;8.0;;;8.0;;
53939;SDS011;39850;43.324;21.916;2023-05-07T12:22:02;8.0;;;7.0;;
53939;SDS011;39850;43.324;21.916;2023-05-07T12:26:41;8.0;;;7.0;;
53939;SDS011;39850;43.324;21.916;2023-05-07T12:31:18;8.0;;;7.0;;
53939;SDS011;39850;43.324;21.916;2023-05-07T12:35:56;8.0;;;8.0;;
53939;SDS011;39850;43.324;21.916;2023-05-07T12:40:42;8.0;;;8.0;;
53939;SDS011;39850;43.324;21.916;2023-05-07T12:45:21;8.0;;;7.0;;
53939;SDS011;39850;43.324;21.916;2023-05-07T12:49:59;8.0;;;7.0;;
53939;SDS011;39850;43.324;21.916;2023-05-07T13:22:23;10.0;;;8.0;;
53939;SDS011;39850;43.324;21.916;2023-05-07T13:26:59;10.0;;;8.0;;
53939;SDS011;39850;43.324;21.916;2023-05-07T13:31:35;10.0;;;8.0;;
53939;SDS011;39850;43.324;21.916;2023-05-07T13:36:12;10.0;;;8.0;;
53939;SDS011;39850;43.324;21.916;2023-05-07T13:40:49;10.0;;;8.0;;
53939;SDS011;39850;43.324;21.916;2023-05-07T13:45:25;10.0;;;8.0;;
53939;SDS011;39850;43.324;21.916;2023-05-07T13:50:04;10.0;;;8.0;;
53939;SDS011;39850;43.324;21.916;2023-05-07T13:54:43;13.0;;;12.0;;
53939;SDS011;39850;43.324;21.916;2023-05-07T13:59:20;13.0;;;12.0;;
53939;SDS011;39850;43.324;21.916;2023-05-07T14:03:57;16.0;;;16.0;;
53939;SDS011;39850;43.324;21.916;2023-05-07T14:08:33;16.0;;;16.0;;
53939;SDS011;39850;43.324;21.916;2023-05-07T14:45:26;13.0;;;11.0;;
53939;SDS011;39850;43.324;21.916;2023-05-07T14:50:04;13.0;;;11.0;;
53939;SDS011;39850;43.324;21.916;2023-05-07T14:54:42;16.0;;;14.0;;
53939;SDS011;39850;43.324;21.916;2023-05-07T14:59:20;16.0;;;14.0;;
53939;SDS011;39850;43.324;21.916;2023-05-07T15:03:57;18.0;;;18.0;;
53939;SDS011;39850;43.324;21.916;2023-05-07T15:08:34;18.0;;;18.0;;
53939;SDS011;39850;43.324;21.916;2023-05-07T15:13:12;19.0;;;18.0;;
53939;SDS011;39850;43.324;21.916;2023-05-07T15:17:49;19.0;;;18.0;;
53939;SDS011;39850;43.324;21.916;2023-05-07T15:22:26;20.0;;;19.0;;
53939;SDS011;39850;43.324;21.916;2023-05-07T15:27:03;20.0;;;19.0;;
53939;SDS011;39850;43.324;21.916;2023-05-07T15:31:39;20.0;;;19.0;;
53939;SDS011;39850;43.324;21.916;2023-05-07T16:03:58;9.0;;;8.0;;
53939;SDS011;39850;43.324;21.916;2023-05-07T16:08:34;9.0;;;8.0;;
53939;SDS011;39850;43.324;21.916;2023-05-07T16:13:11;9.0;;;8.0;;
53939;SDS011;39850;43.324;21.916;2023-05-07T16:17:48;9.0;;;8.0;;
53939;SDS011;39850;43.324;21.916;2023-05-07T16:22:25;9.0;;;8.0;;
53939;SDS011;39850;43.324;21.916;2023-05-07T16:27:02;9.0;;;8.0;;
53939;SDS011;39850;43.324;21.916;2023-05-07T16:31:39;9.0;;;8.0;;
53939;SDS011;39850;43.324;21.916;2023-05-07T16:36:16;9.0;;;8.0;;
53939;SDS011;39850;43.324;21.916;2023-05-07T16:40:53;9.0;;;8.0;;
53939;SDS011;39850;43.324;21.916;2023-05-07T16:45:29;9.0;;;7.0;;
53939;SDS011;39850;43.324;21.916;2023-05-07T16:50:09;9.0;;;7.0;;
53939;SDS011;39850;43.324;21.916;2023-05-07T17:27:03;10.0;;;8.0;;
53939;SDS011;39850;43.324;21.916;2023-05-07T17:31:40;10.0;;;8.0;;
53939;SDS011;39850;43.324;21.916;2023-05-07T17:36:16;10.0;;;8.0;;
53939;SDS011;39850;43.324;21.916;2023-05-07T17:40:53;10.0;;;8.0;;
53939;SDS011;39850;43.324;21.916;2023-05-07T17:45:32;10.0;;;8.0;;
53939;SDS011;39850;43.324;21.916;2023-05-07T17:50:12;10.0;;;8.0;;
53939;SDS011;39850;43.324;21.916;2023-05-07T17:54:49;11.0;;;9.0;;
53939;SDS011;39850;43.324;21.916;2023-05-07T17:59:27;11.0;;;9.0;;
53939;SDS011;39850;43.324;21.916;2023-05-07T18:45:39;10.0;;;8.0;;
53939;SDS011;39850;43.324;21.916;2023-05-07T18:50:15;10.0;;;8.0;;
53939;SDS011;39850;43.324;21.916;2023-05-07T18:54:51;10.0;;;8.0;;
53939;SDS011;39850;43.324;21.916;2023-05-07T18:59:28;10.0;;;8.0;;
53939;SDS011;39850;43.324;21.916;2023-05-07T19:04:05;10.0;;;8.0;;
53939;SDS011;39850;43.324;21.916;2023-05-07T19:08:42;10.0;;;8.0;;
53939;SDS011;39850;43.324;21.916;2023-05-07T19:13:18;10.0;;;8.0;;
53939;SDS011;39850;43.324;21.916;2023-05-07T19:17:55;10.0;;;8.0;;
53939;SDS011;39850;43.324;21.916;2023-05-07T19:22:32;10.0;;;8.0;;
53939;SDS011;39850;43.324;21.916;2023-05-07T19:27:09;10.0;;;8.0;;
53939;SDS011;39850;43.324;21.916;2023-05-07T19:31:45;10.0;;;8.0;;
53939;SDS011;39850;43.324;21.916;2023-05-07T20:04:05;11.0;;;10.0;;
53939;SDS011;39850;43.324;21.916;2023-05-07T20:08:41;11.0;;;10.0;;
53939;SDS011;39850;43.324;21.916;2023-05-07T20:13:18;11.0;;;10.0;;
53939;SDS011;39850;43.324;21.916;2023-05-07T20:17:55;12.0;;;10.0;;
53939;SDS011;39850;43.324;21.916;2023-05-07T20:22:32;12.0;;;10.0;;
53939;SDS011;39850;43.324;21.916;2023-05-07T20:27:09;12.0;;;10.0;;
53939;SDS011;39850;43.324;21.916;2023-05-07T20:31:45;12.0;;;10.0;;
53939;SDS011;39850;43.324;21.916;2023-05-07T20:36:22;14.0;;;11.0;;
53939;SDS011;39850;43.324;21.916;2023-05-07T20:41:09;14.0;;;11.0;;
53939;SDS011;39850;43.324;21.916;2023-05-07T21:27:22;14.0;;;13.0;;
53939;SDS011;39850;43.324;21.916;2023-05-07T21:31:59;14.0;;;13.0;;
53939;SDS011;39850;43.324;21.916;2023-05-07T21:36:36;18.0;;;18.0;;
53939;SDS011;39850;43.324;21.916;2023-05-07T21:41:13;18.0;;;18.0;;
53939;SDS011;39850;43.324;21.916;2023-05-07T21:45:50;18.0;;;18.0;;
53939;SDS011;39850;43.324;21.916;2023-05-07T21:50:27;18.0;;;18.0;;
53939;SDS011;39850;43.324;21.916;2023-05-07T21:55:08;23.0;;;23.0;;
53939;SDS011;39850;43.324;21.916;2023-05-07T21:59:45;23.0;;;23.0;;
53939;SDS011;39850;43.324;21.916;2023-05-07T22:46:00;11.0;;;10.0;;
53939;SDS011;39850;43.324;21.916;2023-05-07T22:50:38;11.0;;;10.0;;
53939;SDS011;39850;43.324;21.916;2023-05-07T22:55:16;11.0;;;10.0;;
53939;SDS011;39850;43.324;21.916;2023-05-07T22:59:55;11.0;;;10.0;;
53939;SDS011;39850;43.324;21.916;2023-05-07T23:04:32;11.0;;;10.0;;
53939;SDS011;39850;43.324;21.916;2023-05-07T23:09:09;11.0;;;10.0;;
53939;SDS011;39850;43.324;21.916;2023-05-07T23:13:46;11.0;;;10.0;;
53939;SDS011;39850;43.324;21.916;2023-05-07T23:18:23;11.0;;;10.0;;
53939;SDS011;39850;43.324;21.916;2023-05-07T23:22:59;11.0;;;10.0;;
